Time;durP1;ratioP1;P1;durP2;ratioP2;P2;SDS_P1;SDS_P2;PMS_P1;PMS_P2;Temp;Humidity;BMP_temperature;BMP_pressure;BME280_temperature;BME280_humidity;BME280_pressure;Samples;Min_cycle;Max_cycle;Signal;HPM_P1;HPM_P2
2023/10/12 00:02:09;;;;;;;7.95;4.00;;;16.40;74.60;;;;;;4984379;28;20064;-64
2023/10/12 00:04:50;;;;;;;5.65;3.92;;;16.40;74.50;;;;;;4986857;28;20050;-65
2023/10/12 00:07:16;;;;;;;9.50;4.40;;;16.40;74.40;;;;;;4988328;28;20034;-64
2023/10/12 00:09:48;;;;;;;8.70;4.10;;;16.40;74.30;;;;;;4985307;28;20426;-64
2023/10/12 00:12:23;;;;;;;10.00;4.30;;;16.40;74.60;;;;;;4984031;28;20045;-64
2023/10/12 00:14:49;;;;;;;9.52;4.55;;;16.30;74.50;;;;;;4985776;28;20466;-64
2023/10/12 00:17:17;;;;;;;8.13;4.28;;;16.30;74.50;;;;;;4984062;28;20034;-64
2023/10/12 00:19:43;;;;;;;8.63;4.43;;;16.30;74.60;;;;;;4984104;28;20467;-64
2023/10/12 00:22:15;;;;;;;9.40;4.47;;;16.30;74.80;;;;;;4987118;28;20121;-64
2023/10/12 00:24:41;;;;;;;9.52;4.38;;;16.30;74.90;;;;;;4984305;28;20042;-65
2023/10/12 00:27:14;;;;;;;19.83;4.72;;;16.30;75.00;;;;;;4978998;28;20089;-65
2023/10/12 00:29:45;;;;;;;9.93;4.13;;;16.30;75.20;;;;;;4984595;28;20042;-64
2023/10/12 00:32:10;;;;;;;9.30;3.90;;;16.30;75.20;;;;;;4986400;28;20054;-64
2023/10/12 00:34:46;;;;;;;9.13;4.70;;;16.30;75.30;;;;;;4985019;28;20565;-64
2023/10/12 00:37:12;;;;;;;10.07;4.47;;;16.30;75.60;;;;;;4985547;28;20038;-65
2023/10/12 00:39:57;;;;;;;10.80;4.80;;;16.30;75.50;;;;;;4986046;28;20116;-64
2023/10/12 00:42:32;;;;;;;11.50;5.15;;;16.40;75.60;;;;;;4985097;28;20045;-64
2023/10/12 00:45:05;;;;;;;10.05;4.57;;;16.40;75.50;;;;;;4985464;28;20062;-65
2023/10/12 00:47:49;;;;;;;7.07;4.95;;;16.40;75.40;;;;;;4985877;28;20039;-64
2023/10/12 00:50:16;;;;;;;8.60;4.45;;;16.40;75.40;;;;;;4985504;28;20046;-64
2023/10/12 00:52:52;;;;;;;8.60;4.40;;;16.40;75.20;;;;;;4982790;28;20237;-64
2023/10/12 00:55:21;;;;;;;9.90;4.28;;;16.40;75.30;;;;;;4985370;28;20038;-64
2023/10/12 00:57:49;;;;;;;7.63;4.13;;;16.30;75.20;;;;;;4986463;28;20045;-64
2023/10/12 01:00:16;;;;;;;8.55;4.18;;;16.30;75.10;;;;;;4982720;28;20081;-64
2023/10/12 01:02:44;;;;;;;6.65;3.92;;;16.20;75.10;;;;;;4979706;28;20592;-64
2023/10/12 01:05:11;;;;;;;9.63;4.03;;;16.20;75.10;;;;;;4979153;28;20134;-64
2023/10/12 01:07:37;;;;;;;10.02;4.35;;;16.20;75.30;;;;;;4979799;28;20026;-64
2023/10/12 01:10:10;;;;;;;11.80;4.93;;;16.20;75.50;;;;;;4980020;28;20042;-64
2023/10/12 01:12:36;;;;;;;10.13;4.40;;;16.20;75.70;;;;;;4980182;28;20023;-64
2023/10/12 01:15:09;;;;;;;11.25;4.57;;;16.20;75.80;;;;;;4983274;28;20397;-64
2023/10/12 01:17:36;;;;;;;8.57;4.30;;;16.20;76.00;;;;;;4984080;28;20077;-64
2023/10/12 01:20:16;;;;;;;9.48;4.35;;;16.20;76.20;;;;;;4985987;28;20054;-64
2023/10/12 01:22:41;;;;;;;10.65;4.60;;;16.30;76.40;;;;;;4983321;28;20133;-64
2023/10/12 01:25:12;;;;;;;9.02;4.43;;;16.30;76.60;;;;;;4985908;28;20200;-64
2023/10/12 01:27:44;;;;;;;9.65;4.10;;;16.30;76.80;;;;;;4985800;28;20034;-65
2023/10/12 01:30:22;;;;;;;10.50;4.20;;;16.30;76.90;;;;;;4985137;28;20362;-64
2023/10/12 01:32:58;;;;;;;8.77;4.28;;;16.40;77.00;;;;;;4982369;28;20775;-64
2023/10/12 01:35:32;;;;;;;8.25;4.40;;;16.40;77.10;;;;;;4985464;28;20554;-65
2023/10/12 01:38:01;;;;;;;8.15;4.55;;;16.40;76.90;;;;;;4983983;28;20057;-64
2023/10/12 01:40:40;;;;;;;8.95;4.38;;;16.50;77.00;;;;;;4986341;28;20089;-65
2023/10/12 01:43:12;;;;;;;10.38;4.10;;;16.50;76.90;;;;;;4983600;28;20507;-64
2023/10/12 01:45:41;;;;;;;9.25;4.28;;;16.60;76.80;;;;;;4985358;28;20035;-64
2023/10/12 01:48:08;;;;;;;9.73;4.32;;;16.60;76.80;;;;;;4983423;28;20323;-65
2023/10/12 01:50:37;;;;;;;8.85;4.10;;;16.60;76.80;;;;;;4981575;28;20042;-64
2023/10/12 01:53:11;;;;;;;9.43;4.68;;;16.60;76.90;;;;;;4981692;28;20405;-64
2023/10/12 01:55:37;;;;;;;11.95;4.40;;;16.70;76.80;;;;;;4978797;28;20117;-65
2023/10/12 01:58:04;;;;;;;9.40;4.20;;;16.70;76.60;;;;;;4982425;28;20579;-64
2023/10/12 02:00:41;;;;;;;9.05;4.03;;;16.70;76.60;;;;;;4978430;28;20095;-64
2023/10/12 02:03:17;;;;;;;7.55;3.80;;;16.80;76.60;;;;;;4980395;28;20586;-65
2023/10/12 02:05:58;;;;;;;11.10;4.15;;;16.70;76.50;;;;;;4981216;28;20525;-64
2023/10/12 02:09:08;;;;;;;7.40;3.63;;;16.70;76.30;;;;;;4984651;28;20418;-65
2023/10/12 02:13:50;;;;;;;12.07;4.38;;;16.70;76.00;;;;;;4983664;28;20041;-64
2023/10/12 02:16:26;;;;;;;9.15;3.92;;;16.70;76.00;;;;;;4981028;28;20038;-65
2023/10/12 02:18:55;;;;;;;7.70;3.80;;;16.60;76.00;;;;;;4980927;28;20100;-64
2023/10/12 02:21:21;;;;;;;8.63;3.88;;;16.60;76.10;;;;;;4980663;28;20410;-64
2023/10/12 02:23:55;;;;;;;9.55;4.22;;;16.50;76.20;;;;;;4981329;28;20042;-64
2023/10/12 02:34:19;;;;;;;7.78;3.95;;;16.30;76.30;;;;;;4982420;28;20036;-64
2023/10/12 02:37:00;;;;;;;6.35;4.05;;;16.30;76.00;;;;;;4982403;28;20121;-65
2023/10/12 02:39:27;;;;;;;9.27;4.13;;;16.20;76.00;;;;;;4983399;28;20041;-64
2023/10/12 02:42:10;;;;;;;8.93;4.40;;;16.20;75.90;;;;;;4984793;28;20104;-64
2023/10/12 02:47:24;;;;;;;7.72;3.97;;;16.10;76.00;;;;;;4980091;28;20042;-64
2023/10/12 02:49:51;;;;;;;9.52;4.25;;;16.10;75.90;;;;;;4986124;28;20537;-65
2023/10/12 02:52:20;;;;;;;6.80;4.38;;;16.00;76.10;;;;;;4979918;28;20042;-64
2023/10/12 02:54:55;;;;;;;9.68;4.28;;;15.90;76.10;;;;;;4982550;28;20034;-64
2023/10/12 02:57:24;;;;;;;9.90;4.22;;;15.90;76.30;;;;;;4984306;28;20457;-64
2023/10/12 03:00:12;;;;;;;10.90;3.95;;;15.90;76.70;;;;;;4982482;28;20046;-64
2023/10/12 03:02:43;;;;;;;11.15;4.47;;;15.90;77.20;;;;;;4977638;28;20156;-64
2023/10/12 03:05:09;;;;;;;9.80;4.43;;;15.90;77.50;;;;;;4982848;28;20045;-64
2023/10/12 03:07:38;;;;;;;8.18;4.05;;;15.90;77.90;;;;;;4982545;28;20452;-64
2023/10/12 03:10:07;;;;;;;9.98;4.38;;;16.00;78.20;;;;;;4980584;28;20533;-64
2023/10/12 03:12:35;;;;;;;9.40;4.50;;;16.00;78.30;;;;;;4977712;28;20026;-64
2023/10/12 03:15:12;;;;;;;12.52;4.47;;;16.10;78.30;;;;;;4982543;28;20034;-64
2023/10/12 03:17:45;;;;;;;11.35;4.30;;;16.10;78.20;;;;;;4979017;28;20457;-65
2023/10/12 03:20:23;;;;;;;11.02;4.10;;;16.20;78.10;;;;;;4980618;28;20031;-64
2023/10/12 03:22:52;;;;;;;7.25;4.10;;;16.30;77.90;;;;;;4982627;28;20035;-65
2023/10/12 03:25:19;;;;;;;9.27;4.65;;;16.40;77.80;;;;;;4981698;28;20088;-64
2023/10/12 03:27:52;;;;;;;12.63;4.15;;;16.40;77.60;;;;;;4984008;28;20041;-64
2023/10/12 03:30:24;;;;;;;8.70;3.72;;;16.50;77.50;;;;;;4983381;28;20250;-65
2023/10/12 03:32:49;;;;;;;7.75;4.00;;;16.50;77.20;;;;;;4980705;28;20594;-64
2023/10/12 03:35:26;;;;;;;8.77;3.65;;;16.60;77.00;;;;;;4975874;28;20045;-64
2023/10/12 03:38:00;;;;;;;8.75;4.40;;;16.60;76.90;;;;;;4977107;28;20039;-64
2023/10/12 03:43:25;;;;;;;7.37;3.63;;;16.70;76.60;;;;;;4980428;28;20041;-64
2023/10/12 03:53:56;;;;;;;10.13;4.10;;;16.80;75.80;;;;;;4978962;28;20054;-64
2023/10/12 03:56:36;;;;;;;7.53;4.00;;;16.70;75.70;;;;;;4978078;28;20038;-64
2023/10/12 03:59:06;;;;;;;11.10;4.75;;;16.70;75.50;;;;;;4975244;28;20043;-64
2023/10/12 04:01:35;;;;;;;8.02;4.38;;;16.70;75.40;;;;;;4978574;28;21332;-64
2023/10/12 04:04:19;;;;;;;9.18;3.97;;;16.60;75.30;;;;;;4976270;28;20035;-64
2023/10/12 04:09:31;;;;;;;13.88;4.40;;;16.60;75.40;;;;;;4983352;28;20042;-64
2023/10/12 04:12:11;;;;;;;11.02;4.75;;;16.60;75.30;;;;;;4978660;28;20116;-64
2023/10/12 04:14:46;;;;;;;;;;;;;;;;;;;;;
2023/10/12 04:17:09;;;;;;;14.30;4.30;;;16.50;75.40;;;;;;4982919;28;20306;-64
2023/10/12 04:19:35;;;;;;;8.35;4.00;;;16.50;75.50;;;;;;4981243;28;20334;-65
2023/10/12 04:22:41;;;;;;;12.27;4.07;;;16.40;75.60;;;;;;4979031;28;20380;-64
2023/10/12 04:24:55;;;;;;;9.68;4.45;;;16.30;75.80;;;;;;4974844;28;20165;-64
2023/10/12 04:27:38;;;;;;;7.60;3.72;;;16.30;76.00;;;;;;4984104;28;20073;-64
2023/10/12 04:30:18;;;;;;;9.68;4.40;;;16.20;76.10;;;;;;4986840;28;20050;-64
2023/10/12 04:35:22;;;;;;;10.48;3.90;;;16.10;76.30;;;;;;4987685;28;20150;-64
2023/10/12 04:37:48;;;;;;;8.00;4.30;;;16.10;76.30;;;;;;4985214;28;20050;-64
2023/10/12 04:43:05;;;;;;;6.45;3.75;;;16.00;76.50;;;;;;4985931;28;20034;-64
2023/10/12 04:45:44;;;;;;;6.22;3.67;;;16.00;76.50;;;;;;4987242;28;20073;-64
2023/10/12 04:48:18;;;;;;;7.18;3.70;;;16.00;76.60;;;;;;4987576;28;20084;-64
2023/10/12 04:50:44;;;;;;;9.87;3.43;;;16.00;76.80;;;;;;4987026;28;20049;-64
2023/10/12 04:53:12;;;;;;;11.40;3.88;;;16.00;76.80;;;;;;4983237;28;20584;-64
2023/10/12 04:55:47;;;;;;;7.82;4.10;;;16.00;77.00;;;;;;4986682;28;20084;-64
2023/10/12 04:58:20;;;;;;;7.75;3.90;;;16.00;77.00;;;;;;4987013;28;20133;-64
2023/10/12 05:00:55;;;;;;;5.97;3.55;;;16.10;77.20;;;;;;4986797;28;20038;-64
2023/10/12 05:03:33;;;;;;;10.63;4.18;;;16.10;77.10;;;;;;4986305;28;20049;-64
2023/10/12 05:06:08;;;;;;;10.05;3.67;;;16.10;77.20;;;;;;4986825;28;20042;-64
2023/10/12 05:08:34;;;;;;;;;;;16.10;77.10;;;;;;4986548;28;20045;-64
2023/10/12 05:11:00;;;;;;;7.43;3.20;;;16.20;77.20;;;;;;4985742;28;19914;-64
2023/10/12 05:13:26;;;;;;;7.90;3.75;;;16.20;76.60;;;;;;4985396;28;20121;-64
2023/10/12 05:15:55;;;;;;;7.70;3.70;;;16.20;76.70;;;;;;4986474;28;20121;-64
2023/10/12 05:18:23;;;;;;;8.27;4.03;;;16.20;76.80;;;;;;4986775;28;20387;-64
2023/10/12 05:20:49;;;;;;;8.95;3.45;;;16.10;76.70;;;;;;4986193;28;20125;-64
2023/10/12 05:23:16;;;;;;;7.00;3.60;;;16.10;76.60;;;;;;4985095;28;20093;-64
2023/10/12 05:25:48;;;;;;;7.80;3.72;;;16.10;76.70;;;;;;4987255;28;20096;-64
2023/10/12 05:28:35;;;;;;;7.60;3.90;;;16.10;76.60;;;;;;4984974;28;20030;-65
2023/10/12 05:36:08;;;;;;;9.05;3.83;;;16.00;76.50;;;;;;4986498;28;20034;-64
2023/10/12 05:38:51;;;;;;;15.90;4.70;;;15.90;76.30;;;;;;4984161;28;20414;-64
2023/10/12 05:41:34;;;;;;;12.38;4.63;;;15.90;76.50;;;;;;4985438;28;20037;-64
2023/10/12 05:44:02;;;;;;;12.23;4.00;;;15.90;76.50;;;;;;4984914;28;20061;-64
2023/10/12 05:46:33;;;;;;;8.52;3.95;;;15.80;76.60;;;;;;4985278;28;20046;-65
2023/10/12 05:48:59;;;;;;;11.48;4.50;;;15.80;76.70;;;;;;4986182;28;20047;-64
2023/10/12 05:51:24;;;;;;;8.82;4.10;;;15.70;76.80;;;;;;4986680;28;20069;-64
2023/10/12 05:54:24;;;;;;;13.85;4.38;;;15.70;77.00;;;;;;4985853;28;20049;-64
2023/10/12 05:56:43;;;;;;;10.02;4.53;;;15.70;77.20;;;;;;4982678;28;20046;-64
2023/10/12 05:59:12;;;;;;;9.23;4.43;;;15.60;77.00;;;;;;4985310;28;20043;-64
2023/10/12 06:01:45;;;;;;;12.40;4.60;;;15.60;77.10;;;;;;4985583;28;20567;-64
2023/10/12 06:04:14;;;;;;;7.00;4.22;;;15.60;77.20;;;;;;4985483;28;20041;-65
2023/10/12 06:06:42;;;;;;;11.07;4.18;;;15.60;77.20;;;;;;4984754;28;20048;-64
2023/10/12 06:09:24;;;;;;;10.30;4.30;;;15.60;77.20;;;;;;4984178;28;20038;-64
2023/10/12 06:11:51;;;;;;;10.02;6.45;;;15.50;77.30;;;;;;4984964;28;20121;-65
2023/10/12 06:14:20;;;;;;;10.23;4.43;;;15.50;77.20;;;;;;4985439;28;20039;-64
2023/10/12 06:16:47;;;;;;;11.23;5.88;;;15.50;77.40;;;;;;4983466;28;20409;-64
2023/10/12 06:19:23;;;;;;;11.85;6.35;;;15.50;77.40;;;;;;4985536;28;20484;-64
2023/10/12 06:21:52;;;;;;;9.52;5.35;;;15.50;77.40;;;;;;4986274;28;20064;-64
2023/10/12 06:24:27;;;;;;;11.35;5.28;;;15.50;77.40;;;;;;4983893;28;20589;-64
2023/10/12 06:26:52;;;;;;;;;;;15.50;77.60;;;;;;4985558;28;20502;-64
2023/10/12 06:29:24;;;;;;;11.27;3.67;;;15.50;77.60;;;;;;4984968;28;19922;-64
2023/10/12 06:31:54;;;;;;;6.72;3.80;;;15.50;77.20;;;;;;4986333;28;20623;-64
2023/10/12 06:34:24;;;;;;;9.85;4.07;;;15.50;77.50;;;;;;4985429;28;20053;-64
2023/10/12 06:36:57;;;;;;;9.90;4.40;;;15.50;77.70;;;;;;4985676;28;20122;-64
2023/10/12 06:44:26;;;;;;;9.63;4.40;;;15.60;78.00;;;;;;4984014;28;20117;-65
2023/10/12 06:47:24;;;;;;;10.90;4.20;;;15.70;78.40;;;;;;4983475;28;20034;-64
2023/10/12 06:49:49;;;;;;;12.60;4.43;;;15.70;78.40;;;;;;4986567;28;20109;-64
2023/10/12 06:52:19;;;;;;;10.35;4.97;;;15.80;78.20;;;;;;4984314;28;20057;-64
2023/10/12 06:54:59;;;;;;;10.55;5.47;;;15.80;78.20;;;;;;4982807;28;20467;-65
2023/10/12 07:02:28;;;;;;;9.50;5.13;;;16.00;77.90;;;;;;4985076;28;20034;-64
2023/10/12 07:04:58;;;;;;;12.23;4.60;;;16.10;78.00;;;;;;4983614;28;20038;-64
2023/10/12 07:07:44;;;;;;;7.63;3.90;;;16.20;77.90;;;;;;4984594;28;20038;-64
2023/10/12 07:12:44;;;;;;;8.68;2.90;;;16.30;77.80;;;;;;4983461;28;19913;-64
2023/10/12 07:15:23;;;;;;;7.10;3.03;;;16.40;77.60;;;;;;4984828;28;20465;-65
2023/10/12 07:17:50;;;;;;;7.93;3.15;;;16.40;77.50;;;;;;4984446;28;20050;-64
2023/10/12 07:23:28;;;;;;;7.43;2.63;;;16.60;77.30;;;;;;4983401;28;20542;-65
2023/10/12 07:25:48;;;;;;;6.55;2.88;;;16.60;77.10;;;;;;4983328;28;20045;-64
2023/10/12 07:28:19;;;;;;;5.43;2.67;;;16.70;77.00;;;;;;4984835;28;20039;-64
2023/10/12 07:33:31;;;;;;;9.63;2.97;;;17.00;76.30;;;;;;4985906;28;20131;-64
2023/10/12 07:36:11;;;;;;;5.32;2.90;;;17.10;75.90;;;;;;4984596;28;20065;-64
2023/10/12 07:38:37;;;;;;;8.48;2.78;;;17.20;75.30;;;;;;4982716;28;20034;-64
2023/10/12 07:41:09;;;;;;;7.72;2.85;;;17.30;75.20;;;;;;4984337;28;20041;-65
2023/10/12 07:43:38;;;;;;;4.90;2.95;;;17.40;74.70;;;;;;4984428;28;20088;-65
2023/10/12 07:46:13;;;;;;;6.45;2.53;;;17.50;74.40;;;;;;4984672;28;20514;-65
2023/10/12 07:48:43;;;;;;;9.70;2.63;;;17.60;74.10;;;;;;4982786;28;20122;-65
2023/10/12 07:51:15;;;;;;;5.18;2.45;;;17.60;73.80;;;;;;4984411;28;20042;-65
2023/10/12 07:53:48;;;;;;;11.13;3.15;;;17.70;73.30;;;;;;4983975;28;20089;-65
2023/10/12 07:56:17;;;;;;;7.18;2.97;;;17.80;73.10;;;;;;4983084;28;20120;-64
2023/10/12 07:58:51;;;;;;;7.25;2.80;;;17.90;73.20;;;;;;4983421;28;20048;-65
2023/10/12 08:03:51;;;;;;;9.23;3.00;;;18.00;72.80;;;;;;4987541;28;20046;-65
2023/10/12 08:06:31;;;;;;;10.95;2.70;;;18.10;72.60;;;;;;4988137;28;20127;-65
2023/10/12 08:09:04;;;;;;;4.20;2.60;;;18.20;72.40;;;;;;4989218;28;20099;-65
2023/10/12 08:11:31;;;;;;;6.43;2.72;;;18.30;72.30;;;;;;4986565;28;20035;-65
2023/10/12 08:14:39;;;;;;;9.32;3.20;;;18.40;72.10;;;;;;4988520;28;20762;-64
2023/10/12 08:19:43;;;;;;;7.60;2.67;;;18.60;71.80;;;;;;4989045;28;20057;-65
2023/10/12 08:22:17;;;;;;;6.65;2.30;;;18.70;71.80;;;;;;4988470;28;20092;-65
2023/10/12 08:24:45;;;;;;;6.13;3.00;;;18.80;71.50;;;;;;4986911;28;20062;-65
2023/10/12 08:27:12;;;;;;;8.48;2.78;;;18.90;71.20;;;;;;4989175;28;20030;-64
2023/10/12 08:39:39;;;;;;;7.90;3.08;;;19.40;70.50;;;;;;4986429;28;20048;-65
2023/10/12 08:44:34;;;;;;;6.40;2.88;;;19.60;70.00;;;;;;4987518;28;20042;-65
2023/10/12 08:47:09;;;;;;;7.20;2.65;;;19.70;69.30;;;;;;4987764;28;20037;-65
2023/10/12 08:49:34;;;;;;;8.38;2.70;;;19.90;69.30;;;;;;4985945;28;20410;-65
2023/10/12 08:52:07;;;;;;;7.80;2.70;;;19.90;68.90;;;;;;4988109;28;20038;-64
2023/10/12 08:54:37;;;;;;;6.97;3.17;;;20.00;68.30;;;;;;4986629;28;20066;-65
2023/10/12 08:57:18;;;;;;;7.45;2.83;;;20.20;67.90;;;;;;4988360;28;20030;-64
2023/10/12 09:00:19;;;;;;;6.65;2.78;;;20.20;68.00;;;;;;4988469;28;20057;-64
2023/10/12 09:02:49;;;;;;;10.18;2.92;;;20.40;67.90;;;;;;4986910;28;22233;-65
2023/10/12 09:05:24;;;;;;;6.43;2.58;;;20.50;67.80;;;;;;4988828;28;20049;-65
2023/10/12 09:10:52;;;;;;;4.78;2.72;;;20.80;67.50;;;;;;4985974;28;20046;-65
2023/10/12 09:13:22;;;;;;;5.18;2.65;;;20.90;66.80;;;;;;4988230;28;20030;-65
2023/10/12 09:15:54;;;;;;;26.23;3.60;;;21.00;66.20;;;;;;4986885;28;20035;-65
2023/10/12 09:18:24;;;;;;;29.45;3.65;;;21.20;66.00;;;;;;4988226;28;20035;-65
2023/10/12 09:23:28;;;;;;;8.55;2.83;;;21.40;65.50;;;;;;4986508;28;20117;-65
2023/10/12 09:36:29;;;;;;;10.07;2.60;;;21.90;64.20;;;;;;4985734;28;20068;-65
2023/10/12 09:38:58;;;;;;;5.97;2.53;;;22.00;64.10;;;;;;4986189;28;20038;-65
2023/10/12 09:41:29;;;;;;;5.15;2.88;;;22.20;63.30;;;;;;4987471;28;20396;-65
2023/10/12 09:44:04;;;;;;;7.43;2.78;;;22.30;63.30;;;;;;4986190;28;20038;-65
2023/10/12 09:46:32;;;;;;;9.52;2.80;;;22.40;63.10;;;;;;4987324;28;20038;-64
2023/10/12 09:49:46;;;;;;;8.32;3.00;;;22.50;62.90;;;;;;4987759;28;20039;-65
2023/10/12 09:51:55;;;;;;;7.78;2.70;;;22.50;62.80;;;;;;4978144;28;20039;-64
2023/10/12 09:54:28;;;;;;;6.00;3.08;;;22.60;62.40;;;;;;4987494;28;20041;-65
2023/10/12 09:57:04;;;;;;;8.38;3.20;;;22.70;62.70;;;;;;4986184;28;20494;-65
2023/10/12 09:59:31;;;;;;;6.25;2.92;;;22.80;61.90;;;;;;4987385;28;20502;-65
2023/10/12 10:02:06;;;;;;;6.78;2.95;;;22.80;62.10;;;;;;4985165;28;20034;-65
2023/10/12 10:04:34;;;;;;;12.10;3.47;;;23.00;61.30;;;;;;4984941;28;20702;-65
2023/10/12 10:07:24;;;;;;;8.45;3.10;;;23.00;61.40;;;;;;4985702;28;20129;-65
2023/10/12 10:09:56;;;;;;;9.02;3.33;;;23.20;60.70;;;;;;4986010;28;20030;-65
2023/10/12 10:12:23;;;;;;;7.38;3.00;;;23.20;61.30;;;;;;4986916;28;20061;-65
2023/10/12 10:15:00;;;;;;;7.82;2.90;;;23.30;60.60;;;;;;4985490;28;20038;-65
2023/10/12 10:17:52;;;;;;;7.95;3.15;;;23.40;60.40;;;;;;4986775;28;20042;-65
2023/10/12 10:22:57;;;;;;;10.02;3.45;;;23.70;60.00;;;;;;4985450;28;20494;-64
2023/10/12 10:25:34;;;;;;;6.78;3.35;;;23.70;59.70;;;;;;4984770;28;20402;-65
2023/10/12 10:28:10;;;;;;;4.45;2.83;;;23.80;58.80;;;;;;4985801;28;20034;-65
2023/10/12 10:30:41;;;;;;;4.32;2.83;;;23.90;59.00;;;;;;4984977;28;20038;-65
2023/10/12 10:33:13;;;;;;;4.70;3.15;;;24.00;58.70;;;;;;4985732;28;20122;-65
2023/10/12 10:35:58;;;;;;;6.43;3.08;;;24.00;58.90;;;;;;4985918;28;20142;-65
2023/10/12 10:38:34;;;;;;;11.35;3.78;;;24.10;57.70;;;;;;4985188;28;20046;-65
2023/10/12 10:41:07;;;;;;;10.73;2.90;;;24.20;58.40;;;;;;4985285;28;20050;-65
2023/10/12 10:43:37;;;;;;;6.93;3.55;;;24.20;57.70;;;;;;4986103;28;20034;-65
2023/10/12 10:46:09;;;;;;;11.15;3.20;;;24.30;57.60;;;;;;4986245;28;20044;-65
2023/10/12 10:48:37;;;;;;;9.05;3.25;;;24.30;57.10;;;;;;4987053;28;20121;-65
2023/10/12 10:51:18;;;;;;;11.02;3.30;;;24.40;56.70;;;;;;4986788;28;20057;-65
2023/10/12 10:53:51;;;;;;;5.00;3.00;;;24.40;56.00;;;;;;4985282;28;20034;-64
2023/10/12 10:56:27;;;;;;;8.57;3.10;;;24.40;56.00;;;;;;4985199;28;20109;-65
2023/10/12 10:58:55;;;;;;;11.75;3.45;;;24.50;54.80;;;;;;4986818;28;20414;-65
2023/10/12 11:01:20;;;;;;;4.75;3.03;;;24.50;55.10;;;;;;4986367;28;20045;-65
2023/10/12 11:03:46;;;;;;;5.63;2.97;;;24.50;55.20;;;;;;4985253;28;20042;-65
2023/10/12 11:06:21;;;;;;;5.57;3.03;;;24.60;55.00;;;;;;4984898;28;20114;-63
2023/10/12 11:09:06;;;;;;;7.47;3.20;;;24.60;54.10;;;;;;4985426;28;20039;-65
2023/10/12 11:11:37;;;;;;;6.85;2.90;;;24.60;54.20;;;;;;4984271;28;20502;-65
2023/10/12 11:14:10;;;;;;;7.60;3.20;;;24.60;54.70;;;;;;4985165;28;20101;-64
2023/10/12 11:16:37;;;;;;;7.00;3.10;;;24.70;54.50;;;;;;4984844;28;20030;-65
2023/10/12 11:19:08;;;;;;;10.25;3.78;;;24.70;54.90;;;;;;4986022;28;20061;-65
2023/10/12 11:21:34;;;;;;;7.22;3.40;;;24.70;54.00;;;;;;4985018;28;20045;-64
2023/10/12 11:24:01;;;;;;;5.40;3.20;;;24.80;53.50;;;;;;4985717;28;20050;-65
2023/10/12 11:26:28;;;;;;;12.80;3.63;;;24.80;54.00;;;;;;4984255;28;20034;-65
2023/10/12 11:29:04;;;;;;;7.43;3.55;;;24.80;54.10;;;;;;4985458;28;20030;-64
2023/10/12 11:31:30;;;;;;;12.70;3.70;;;24.90;53.30;;;;;;4985984;28;20058;-64
2023/10/12 11:33:58;;;;;;;7.70;3.60;;;24.90;53.40;;;;;;4985261;28;20133;-64
2023/10/12 11:36:24;;;;;;;7.18;2.83;;;25.00;53.30;;;;;;4984158;28;20080;-65
2023/10/12 11:39:21;;;;;;;7.25;3.33;;;25.00;53.30;;;;;;4984906;28;20403;-65
2023/10/12 11:42:07;;;;;;;7.53;3.08;;;25.00;52.00;;;;;;4984452;28;20073;-65
2023/10/12 11:44:37;;;;;;;8.45;3.40;;;25.00;52.30;;;;;;4986046;28;20061;-65
2023/10/12 11:47:07;;;;;;;8.20;3.15;;;25.00;51.90;;;;;;4984814;28;20372;-65
2023/10/12 11:49:49;;;;;;;10.27;3.00;;;25.00;52.50;;;;;;4985988;28;20042;-65
2023/10/12 11:52:17;;;;;;;4.93;2.92;;;25.00;51.80;;;;;;4986033;28;20042;-65
2023/10/12 11:54:44;;;;;;;8.88;3.08;;;25.00;52.50;;;;;;4983104;28;20247;-65
2023/10/12 11:57:10;;;;;;;10.93;3.10;;;25.10;52.50;;;;;;4985463;28;20045;-65
2023/10/12 11:59:36;;;;;;;7.97;3.30;;;25.10;52.80;;;;;;4986531;28;20034;-65
2023/10/12 12:02:15;;;;;;;8.88;2.95;;;25.10;52.40;;;;;;4985224;28;20038;-65
2023/10/12 12:04:41;;;;;;;5.22;2.80;;;25.10;52.10;;;;;;4983695;28;20105;-65
2023/10/12 12:07:10;;;;;;;6.80;2.88;;;25.20;52.40;;;;;;4985331;28;20092;-65
2023/10/12 12:09:40;;;;;;;6.15;3.30;;;25.20;52.50;;;;;;4984715;28;20046;-65
2023/10/12 12:12:12;;;;;;;8.63;3.20;;;25.20;52.00;;;;;;4983553;28;20034;-65
2023/10/12 12:14:39;;;;;;;4.80;2.78;;;25.30;52.30;;;;;;4984625;28;20034;-65
2023/10/12 12:17:04;;;;;;;7.93;2.83;;;25.30;51.90;;;;;;4984736;28;20061;-65
2023/10/12 12:19:33;;;;;;;5.53;2.70;;;25.40;52.00;;;;;;4985297;28;20065;-65
2023/10/12 12:21:59;;;;;;;4.32;3.17;;;25.40;52.10;;;;;;4985082;28;20101;-65
2023/10/12 12:24:26;;;;;;;6.93;2.70;;;25.40;52.10;;;;;;4983632;28;20046;-65
2023/10/12 12:26:53;;;;;;;7.28;3.00;;;25.50;51.90;;;;;;4984737;28;20058;-65
2023/10/12 12:29:26;;;;;;;4.97;2.70;;;25.60;52.20;;;;;;4986117;28;20062;-65
2023/10/12 12:31:51;;;;;;;8.05;2.80;;;25.60;51.40;;;;;;4985904;28;20434;-64
2023/10/12 12:37:05;;;;;;;8.98;2.75;;;25.70;51.00;;;;;;4984798;28;20581;-65
2023/10/12 12:39:33;;;;;;;4.45;2.75;;;25.70;51.70;;;;;;4983361;28;20069;-65
2023/10/12 12:41:59;;;;;;;7.97;2.83;;;25.70;51.00;;;;;;4984439;28;20034;-65
2023/10/12 12:44:25;;;;;;;7.43;3.28;;;25.70;51.00;;;;;;4983578;28;20461;-65
2023/10/12 12:46:50;;;;;;;11.77;2.95;;;25.70;51.10;;;;;;4986905;28;20042;-65
2023/10/12 12:49:16;;;;;;;11.20;3.30;;;25.70;51.20;;;;;;4988481;28;20050;-65
2023/10/12 12:51:43;;;;;;;5.30;2.85;;;25.70;51.10;;;;;;4990677;28;20081;-65
2023/10/12 12:54:08;;;;;;;6.82;2.97;;;25.70;51.10;;;;;;4990020;28;20125;-66
2023/10/12 12:56:36;;;;;;;9.27;3.15;;;25.70;51.10;;;;;;4989721;28;20138;-65
2023/10/12 12:59:04;;;;;;;6.43;2.75;;;25.70;51.10;;;;;;4989558;28;20315;-65
2023/10/12 13:01:31;;;;;;;4.47;2.78;;;25.70;51.00;;;;;;4990355;28;20114;-65
2023/10/12 13:03:57;;;;;;;4.93;2.67;;;25.70;51.00;;;;;;4989603;28;20597;-65
2023/10/12 13:06:25;;;;;;;8.85;3.38;;;25.70;51.30;;;;;;4990228;28;20117;-65
2023/10/12 13:08:51;;;;;;;6.85;2.88;;;25.70;51.80;;;;;;4989849;28;20035;-65
2023/10/12 13:11:21;;;;;;;8.18;3.10;;;25.70;51.10;;;;;;4989807;28;20135;-65
2023/10/12 13:13:47;;;;;;;4.88;2.60;;;25.70;51.00;;;;;;4989827;28;20047;-65
2023/10/12 13:16:13;;;;;;;13.55;4.15;;;25.70;51.20;;;;;;4989919;28;20053;-65
2023/10/12 13:18:40;;;;;;;6.70;2.83;;;25.70;51.50;;;;;;4988376;28;20034;-65
2023/10/12 13:21:14;;;;;;;13.13;3.10;;;25.70;51.50;;;;;;4989703;28;20572;-65
2023/10/12 13:23:40;;;;;;;10.20;2.70;;;25.70;51.60;;;;;;4989916;28;20491;-65
2023/10/12 13:26:10;;;;;;;14.05;3.45;;;25.70;51.50;;;;;;4989845;28;20089;-65
2023/10/12 13:28:38;;;;;;;8.35;3.20;;;25.70;51.30;;;;;;4989481;28;20564;-65
2023/10/12 13:31:05;;;;;;;11.05;2.90;;;25.70;51.50;;;;;;4989927;28;20038;-65
2023/10/12 13:33:31;;;;;;;8.60;3.10;;;25.70;51.40;;;;;;4989997;28;20084;-65
2023/10/12 13:35:57;;;;;;;6.40;2.85;;;25.60;51.40;;;;;;4989567;28;20042;-65
2023/10/12 13:38:22;;;;;;;8.45;2.92;;;25.60;51.40;;;;;;4989687;28;20450;-65
2023/10/12 13:40:50;;;;;;;5.25;2.58;;;25.60;51.60;;;;;;4989165;28;20089;-65
2023/10/12 13:43:21;;;;;;;8.93;3.20;;;25.60;51.50;;;;;;4989172;28;20498;-65
2023/10/12 13:45:49;;;;;;;11.65;2.90;;;25.60;51.80;;;;;;4990022;28;20049;-65
2023/10/12 13:48:21;;;;;;;9.75;3.25;;;25.50;51.40;;;;;;4989519;28;20035;-65
2023/10/12 13:51:12;;;;;;;6.93;2.75;;;25.50;51.00;;;;;;4989203;28;20116;-65
2023/10/12 13:53:38;;;;;;;13.50;3.13;;;25.40;51.20;;;;;;4989304;28;20055;-65
2023/10/12 13:56:08;;;;;;;14.07;3.22;;;25.40;51.20;;;;;;4989220;28;20053;-65
2023/10/12 13:58:38;;;;;;;7.47;2.90;;;25.40;51.30;;;;;;4989081;28;20046;-65
2023/10/12 14:01:05;;;;;;;6.90;3.10;;;25.30;51.40;;;;;;4983905;28;20034;-65
2023/10/12 14:03:38;;;;;;;6.55;3.30;;;25.30;51.50;;;;;;4985929;28;20402;-65
2023/10/12 14:06:06;;;;;;;7.72;2.83;;;25.30;51.70;;;;;;4988237;28;20097;-64
2023/10/12 14:08:41;;;;;;;7.53;2.90;;;25.20;51.60;;;;;;4988288;28;20034;-66
2023/10/12 14:11:12;;;;;;;4.97;2.75;;;25.20;51.60;;;;;;4987300;28;20034;-65
2023/10/12 14:13:38;;;;;;;5.60;3.10;;;25.20;51.70;;;;;;4989188;28;20888;-65
2023/10/12 14:16:07;;;;;;;5.28;2.67;;;25.10;51.80;;;;;;4988463;28;20517;-65
2023/10/12 14:18:32;;;;;;;5.45;2.88;;;25.10;51.70;;;;;;4988461;28;20045;-65
2023/10/12 14:20:59;;;;;;;5.28;2.80;;;25.10;51.70;;;;;;4987651;28;20022;-65
2023/10/12 14:23:29;;;;;;;6.93;2.72;;;25.10;51.80;;;;;;4988448;28;20444;-65
2023/10/12 14:25:57;;;;;;;5.63;2.72;;;25.00;51.90;;;;;;4988813;28;20041;-65
2023/10/12 14:28:23;;;;;;;4.88;2.78;;;25.00;52.00;;;;;;4988596;28;20041;-65
2023/10/12 14:30:52;;;;;;;8.07;3.10;;;25.00;52.00;;;;;;4986988;28;20361;-65
2023/10/12 14:33:21;;;;;;;5.88;3.15;;;25.00;52.00;;;;;;4988414;28;20034;-65
2023/10/12 14:35:48;;;;;;;4.60;2.80;;;25.00;52.10;;;;;;4987163;28;20046;-65
2023/10/12 14:38:14;;;;;;;8.02;3.33;;;24.90;52.00;;;;;;4987714;28;20096;-65
2023/10/12 14:40:42;;;;;;;12.13;3.20;;;24.90;52.10;;;;;;4987708;28;20027;-65
2023/10/12 14:43:12;;;;;;;10.30;3.10;;;24.90;52.10;;;;;;4985434;28;20035;-65